Accueil
METAR-TAF:

METAR-TAF

Aéroports :

Aéroport de Nice-Côte d'Azur

Nice, France

latitude: 43-39N, longitude: 007-12E, altitude: 4 m

Observation

Le bulletin a été fait il y a 41 minutes, à 05:30 UTC
Vent 8 kt de nord/nord-ouest
Température 7°C
Humidité 76%
Pression 1015 hPa
Visibilité 10 km ou plus
pas de nuages en-dessous de 1500 mètres et pas de cumulonimbus.

METAR: LFMN 080530Z 33008KT CAVOK 07/03 Q1015 NOSIG

Heure: 07:11 (06:11 UTC)

Prévision

Le bulletin a été fait il y a 4 heures et 11 minutes, à 02:00 UTC
Prévision valable du 08 à 03 UTC au 09 à 09 UTC
Vent 10 kt de nord/nord-ouest
Visibilité 10 km ou plus
pas de nuages en-dessous de 1500 mètres et pas de cumulonimbus.
Evoluant progressivement
du 08 à 09 UTC au 08 à 11 UTC
Vent 10 kt de est
Evoluant progressivement
du 08 à 18 UTC au 08 à 20 UTC
Vent 10 kt de nord/nord-ouest

TAF: LFMN 080200Z 0803/0909 34010KT CAVOK BECMG 0809/0811 10010KT BECMG 0818/0820 33010KT

Observations et prévisions météorologiques de plus de 4000 aéroports (messages METAR et TAF).

Les stations disponibles sont représentées par des disques jaunes et rouges sur la carte.

Passer la souris dessus pour voir le nom de la station.

Cliquer dessus pour voir les observations et prévisions météorologiques.

Pour changer de carte: cliquez sur les boutons verts avec une croix noire pour zoomer, sur le bouton vert avec un tiret pour effectuer un zoom arrière, ou sur les flèches vertes pour les cartes adjacentes.


METAR-TAF: